createdAt,value
2022-08-22T00:02:58.943Z,71.17
2022-08-22T00:08:03.867Z,72.87
2022-08-22T00:16:40.438Z,73.18
2022-08-22T00:25:31.353Z,73.75
2022-08-22T00:34:10.551Z,74.12
2022-08-22T00:43:00.139Z,74.30
2022-08-22T00:52:05.188Z,74.58
2022-08-22T01:00:34.400Z,74.94
2022-08-22T01:09:10.568Z,74.88
2022-08-22T01:17:39.290Z,74.72
2022-08-22T01:26:37.810Z,74.78
2022-08-22T01:35:21.982Z,74.96
2022-08-22T01:44:25.896Z,74.61
2022-08-22T01:52:59.538Z,74.85
2022-08-22T02:01:31.517Z,74.98
2022-08-22T02:10:23.188Z,75.15
2022-08-22T02:19:10.025Z,75.13
2022-08-22T02:27:55.359Z,75.10
2022-08-22T02:36:28.395Z,74.92
2022-08-22T02:45:19.146Z,75.07
2022-08-22T02:54:09.246Z,75.11
2022-08-22T03:02:42.280Z,75.34
2022-08-22T03:11:46.352Z,75.35
2022-08-22T03:20:15.045Z,75.57
2022-08-22T03:29:07.048Z,75.64
2022-08-22T03:37:36.372Z,76.07
2022-08-22T03:46:36.487Z,76.02
2022-08-22T03:55:16.344Z,76.06
2022-08-22T04:03:42.180Z,76.07
2022-08-22T04:12:08.871Z,76.04
2022-08-22T04:20:54.292Z,75.84
2022-08-22T04:29:28.544Z,75.98
2022-08-22T04:38:14.228Z,75.83
2022-08-22T04:46:48.873Z,75.93
2022-08-22T04:55:46.981Z,75.61
2022-08-22T05:04:30.167Z,75.71
2022-08-22T05:13:06.817Z,75.61
2022-08-22T05:21:40.816Z,75.28
2022-08-22T05:30:16.615Z,75.11
2022-08-22T05:38:50.624Z,75.00
2022-08-22T05:47:24.721Z,75.04
2022-08-22T05:55:56.685Z,75.27
2022-08-22T06:04:22.717Z,75.62
2022-08-22T06:12:52.461Z,75.79
2022-08-22T06:21:21.983Z,75.71
2022-08-22T06:29:47.507Z,75.59
2022-08-22T06:38:13.332Z,75.51
2022-08-22T06:57:37.819Z,75.82
2022-08-22T07:06:02.233Z,75.79
2022-08-22T07:14:47.475Z,76.01
2022-08-22T07:23:13.883Z,75.70
2022-08-22T07:31:54.867Z,75.17
2022-08-22T07:40:28.380Z,75.28
2022-08-22T07:49:09.526Z,75.47
2022-08-22T07:57:40.962Z,75.38
2022-08-22T08:06:06.368Z,75.11
2022-08-22T08:14:32.825Z,75.02
2022-08-22T08:22:59.364Z,75.05
2022-08-22T08:31:31.220Z,74.33
2022-08-22T08:40:00.766Z,73.86
2022-08-22T08:49:06.548Z,73.80
2022-08-22T08:57:55.873Z,73.57
2022-08-22T09:37:21.950Z,71.86
2022-08-22T09:46:03.155Z,71.59
2022-08-22T09:54:31.425Z,70.92
2022-08-22T10:03:19.996Z,70.51
2022-08-22T10:11:55.783Z,69.81
2022-08-22T10:20:30.144Z,68.90
2022-08-22T10:28:58.966Z,68.87
2022-08-22T10:37:50.293Z,68.26
2022-08-22T10:46:29.652Z,66.76
2022-08-22T10:55:17.468Z,66.74
2022-08-22T11:03:49.050Z,66.12
2022-08-22T11:12:41.733Z,65.74
2022-08-22T11:21:18.299Z,65.65
2022-08-22T11:30:10.892Z,65.67
2022-08-22T11:39:01.143Z,64.73
2022-08-22T11:47:31.255Z,64.34
2022-08-22T11:56:17.473Z,63.93
2022-08-22T12:04:46.857Z,63.45
2022-08-22T12:30:14.393Z,63.18
2022-08-22T12:39:02.278Z,62.78
2022-08-22T12:47:49.170Z,62.73
2022-08-22T12:56:18.145Z,61.82
2022-08-22T13:05:08.701Z,62.29
2022-08-22T13:13:39.334Z,62.13
2022-08-22T13:22:05.294Z,62.00
2022-08-22T13:30:31.344Z,61.93
2022-08-22T13:39:03.548Z,62.05
2022-08-22T13:47:31.593Z,62.00
2022-08-22T13:56:05.109Z,62.03
2022-08-22T14:04:37.419Z,61.21
2022-08-22T14:13:00.540Z,60.31
2022-08-22T14:21:41.723Z,60.26
2022-08-22T14:30:18.803Z,60.13
2022-08-22T14:38:50.453Z,60.48
2022-08-22T14:47:54.722Z,59.84
2022-08-22T14:56:15.885Z,59.70
2022-08-22T15:04:50.032Z,59.88
2022-08-22T15:13:14.709Z,59.86
2022-08-22T15:21:41.489Z,59.96
2022-08-22T15:30:21.064Z,59.78
2022-08-22T15:38:51.817Z,60.05
2022-08-22T15:47:37.433Z,60.93
2022-08-22T15:56:05.521Z,61.52
2022-08-22T16:04:53.121Z,61.53
2022-08-22T16:13:31.113Z,61.50
2022-08-22T16:21:55.675Z,61.80
2022-08-22T16:30:35.397Z,63.19
2022-08-22T16:39:00.540Z,63.56
2022-08-22T16:47:41.832Z,64.16
2022-08-22T16:56:33.832Z,65.01
2022-08-22T17:05:18.770Z,65.82
2022-08-22T17:13:59.705Z,66.22
2022-08-22T17:22:44.677Z,67.06
2022-08-22T17:31:13.583Z,67.51
2022-08-22T17:39:55.876Z,67.65
2022-08-22T17:48:47.476Z,66.57
2022-08-22T17:57:26.488Z,66.21
2022-08-22T18:06:05.638Z,66.94
2022-08-22T18:14:52.474Z,67.11
2022-08-22T18:23:39.863Z,67.21
2022-08-22T18:32:05.022Z,67.33
2022-08-22T18:40:33.937Z,67.50
2022-08-22T18:49:15.271Z,67.69
2022-08-22T18:57:44.834Z,67.86
2022-08-22T19:06:49.965Z,67.88
2022-08-22T19:15:31.833Z,68.11
2022-08-22T19:23:57.225Z,68.41
2022-08-22T19:32:59.085Z,68.75
2022-08-22T19:41:41.521Z,69.09
2022-08-22T19:50:33.391Z,69.41
2022-08-22T19:59:02.780Z,69.65
2022-08-22T20:07:33.105Z,69.41
2022-08-22T20:16:19.035Z,69.61
2022-08-22T20:24:50.257Z,69.95
2022-08-22T20:33:36.029Z,70.00
2022-08-22T20:42:13.903Z,70.23
2022-08-22T20:50:36.900Z,70.23
2022-08-22T20:59:01.300Z,70.66
2022-08-22T21:07:38.957Z,71.01
2022-08-22T21:16:34.473Z,71.34
2022-08-22T21:25:00.862Z,71.39
2022-08-22T21:33:25.800Z,71.68
2022-08-22T21:42:31.664Z,72.13
2022-08-22T21:50:56.824Z,72.36
2022-08-22T21:59:52.209Z,72.29
2022-08-22T22:08:29.295Z,73.01
2022-08-22T22:16:54.341Z,72.72
2022-08-22T22:25:40.734Z,72.99
2022-08-22T22:34:04.052Z,73.25
2022-08-22T22:42:28.601Z,73.25
2022-08-22T22:50:53.215Z,73.21
2022-08-22T22:59:16.099Z,73.14
